sensor_id;sensor_type;location;lat;lon;timestamp;temperature;humidity
21033;DHT22;10675;47.976;7.824;2023-03-11T00:00:14;5.20;97.10
21033;DHT22;10675;47.976;7.824;2023-03-11T00:02:42;5.30;97.20
21033;DHT22;10675;47.976;7.824;2023-03-11T00:05:08;5.30;97.30
21033;DHT22;10675;47.976;7.824;2023-03-11T00:07:34;5.30;97.20
21033;DHT22;10675;47.976;7.824;2023-03-11T00:09:59;5.30;97.20
21033;DHT22;10675;47.976;7.824;2023-03-11T00:12:25;5.20;97.30
21033;DHT22;10675;47.976;7.824;2023-03-11T00:14:50;5.20;97.30
21033;DHT22;10675;47.976;7.824;2023-03-11T00:17:16;5.20;97.30
21033;DHT22;10675;47.976;7.824;2023-03-11T00:19:41;5.20;97.50
21033;DHT22;10675;47.976;7.824;2023-03-11T00:22:07;5.30;97.70
21033;DHT22;10675;47.976;7.824;2023-03-11T00:24:33;5.20;97.60
21033;DHT22;10675;47.976;7.824;2023-03-11T00:26:59;5.20;97.30
21033;DHT22;10675;47.976;7.824;2023-03-11T00:29:24;5.20;97.20
21033;DHT22;10675;47.976;7.824;2023-03-11T00:31:50;5.20;97.30
21033;DHT22;10675;47.976;7.824;2023-03-11T00:34:15;5.10;97.30
21033;DHT22;10675;47.976;7.824;2023-03-11T00:36:41;5.10;97.20
21033;DHT22;10675;47.976;7.824;2023-03-11T00:39:06;5.10;97.50
21033;DHT22;10675;47.976;7.824;2023-03-11T00:41:33;5.70;97.80
21033;DHT22;10675;47.976;7.824;2023-03-11T00:43:59;5.10;97.50
21033;DHT22;10675;47.976;7.824;2023-03-11T00:46:24;5.10;97.40
21033;DHT22;10675;47.976;7.824;2023-03-11T00:48:51;5.20;97.70
21033;DHT22;10675;47.976;7.824;2023-03-11T00:51:17;5.30;97.80
21033;DHT22;10675;47.976;7.824;2023-03-11T00:53:42;5.20;97.70
21033;DHT22;10675;47.976;7.824;2023-03-11T00:56:10;5.10;97.50
21033;DHT22;10675;47.976;7.824;2023-03-11T00:58:35;5.10;97.50
21033;DHT22;10675;47.976;7.824;2023-03-11T01:01:07;5.10;96.50
21033;DHT22;10675;47.976;7.824;2023-03-11T01:03:32;5.00;96.70
21033;DHT22;10675;47.976;7.824;2023-03-11T01:05:58;4.90;96.60
21033;DHT22;10675;47.976;7.824;2023-03-11T01:08:24;5.00;96.40
21033;DHT22;10675;47.976;7.824;2023-03-11T01:10:51;4.90;96.00
21033;DHT22;10675;47.976;7.824;2023-03-11T01:13:17;4.90;95.90
21033;DHT22;10675;47.976;7.824;2023-03-11T01:15:42;4.80;95.30
21033;DHT22;10675;47.976;7.824;2023-03-11T01:18:08;4.90;95.40
21033;DHT22;10675;47.976;7.824;2023-03-11T01:20:35;4.90;95.40
21033;DHT22;10675;47.976;7.824;2023-03-11T01:23:01;4.80;95.30
21033;DHT22;10675;47.976;7.824;2023-03-11T01:25:27;4.80;95.30
21033;DHT22;10675;47.976;7.824;2023-03-11T01:27:52;4.80;95.20
21033;DHT22;10675;47.976;7.824;2023-03-11T01:30:22;4.70;95.50
21033;DHT22;10675;47.976;7.824;2023-03-11T01:32:49;4.70;95.80
21033;DHT22;10675;47.976;7.824;2023-03-11T01:35:16;4.80;95.60
21033;DHT22;10675;47.976;7.824;2023-03-11T01:37:42;4.70;95.40
21033;DHT22;10675;47.976;7.824;2023-03-11T01:40:28;4.70;95.70
21033;DHT22;10675;47.976;7.824;2023-03-11T01:42:55;4.70;95.40
21033;DHT22;10675;47.976;7.824;2023-03-11T01:48:14;4.60;95.20
21033;DHT22;10675;47.976;7.824;2023-03-11T01:50:45;4.60;94.80
21033;DHT22;10675;47.976;7.824;2023-03-11T01:53:13;4.60;95.00
21033;DHT22;10675;47.976;7.824;2023-03-11T01:55:40;4.50;94.80
21033;DHT22;10675;47.976;7.824;2023-03-11T01:58:08;4.50;94.90
21033;DHT22;10675;47.976;7.824;2023-03-11T02:00:36;4.60;95.00
21033;DHT22;10675;47.976;7.824;2023-03-11T02:03:10;4.70;94.80
21033;DHT22;10675;47.976;7.824;2023-03-11T02:05:39;4.60;94.40
21033;DHT22;10675;47.976;7.824;2023-03-11T02:08:05;4.60;94.50
21033;DHT22;10675;47.976;7.824;2023-03-11T02:10:31;4.60;94.50
21033;DHT22;10675;47.976;7.824;2023-03-11T02:12:57;4.60;94.80
21033;DHT22;10675;47.976;7.824;2023-03-11T02:15:23;4.70;94.80
21033;DHT22;10675;47.976;7.824;2023-03-11T02:17:50;4.70;94.70
21033;DHT22;10675;47.976;7.824;2023-03-11T02:23:13;4.50;94.70
21033;DHT22;10675;47.976;7.824;2023-03-11T02:25:52;4.40;94.90
21033;DHT22;10675;47.976;7.824;2023-03-11T02:28:20;4.40;95.20
21033;DHT22;10675;47.976;7.824;2023-03-11T02:30:47;4.40;94.70
21033;DHT22;10675;47.976;7.824;2023-03-11T02:33:13;4.30;94.80
21033;DHT22;10675;47.976;7.824;2023-03-11T02:35:39;4.20;94.90
21033;DHT22;10675;47.976;7.824;2023-03-11T02:38:05;4.20;94.60
21033;DHT22;10675;47.976;7.824;2023-03-11T02:43:12;4.20;94.60
21033;DHT22;10675;47.976;7.824;2023-03-11T02:45:39;4.20;94.90
21033;DHT22;10675;47.976;7.824;2023-03-11T02:48:06;4.20;94.50
21033;DHT22;10675;47.976;7.824;2023-03-11T02:50:34;4.20;94.60
21033;DHT22;10675;47.976;7.824;2023-03-11T02:53:02;4.20;94.70
21033;DHT22;10675;47.976;7.824;2023-03-11T02:55:28;4.20;94.30
21033;DHT22;10675;47.976;7.824;2023-03-11T02:57:54;4.30;94.10
21033;DHT22;10675;47.976;7.824;2023-03-11T03:00:20;4.30;94.30
21033;DHT22;10675;47.976;7.824;2023-03-11T03:02:45;4.30;94.00
21033;DHT22;10675;47.976;7.824;2023-03-11T03:05:12;4.30;94.00
21033;DHT22;10675;47.976;7.824;2023-03-11T03:07:37;4.30;94.40
21033;DHT22;10675;47.976;7.824;2023-03-11T03:10:04;4.40;94.00
21033;DHT22;10675;47.976;7.824;2023-03-11T03:12:30;4.30;93.70
21033;DHT22;10675;47.976;7.824;2023-03-11T03:14:56;4.30;93.30
21033;DHT22;10675;47.976;7.824;2023-03-11T03:17:23;4.30;93.40
21033;DHT22;10675;47.976;7.824;2023-03-11T03:19:48;4.40;93.80
21033;DHT22;10675;47.976;7.824;2023-03-11T03:22:14;4.40;93.90
21033;DHT22;10675;47.976;7.824;2023-03-11T03:24:40;4.30;93.30
21033;DHT22;10675;47.976;7.824;2023-03-11T03:27:05;4.30;93.30
21033;DHT22;10675;47.976;7.824;2023-03-11T03:29:31;4.30;93.30
21033;DHT22;10675;47.976;7.824;2023-03-11T03:31:56;4.30;93.70
21033;DHT22;10675;47.976;7.824;2023-03-11T03:34:22;4.30;93.30
21033;DHT22;10675;47.976;7.824;2023-03-11T03:36:48;4.20;93.30
21033;DHT22;10675;47.976;7.824;2023-03-11T03:39:13;4.10;93.60
21033;DHT22;10675;47.976;7.824;2023-03-11T03:41:39;4.20;93.90
21033;DHT22;10675;47.976;7.824;2023-03-11T03:44:04;4.20;94.10
21033;DHT22;10675;47.976;7.824;2023-03-11T03:46:30;4.20;94.40
21033;DHT22;10675;47.976;7.824;2023-03-11T03:48:55;4.20;94.30
21033;DHT22;10675;47.976;7.824;2023-03-11T03:51:21;4.10;94.40
21033;DHT22;10675;47.976;7.824;2023-03-11T03:53:47;4.10;94.60
21033;DHT22;10675;47.976;7.824;2023-03-11T03:56:15;4.10;94.60
21033;DHT22;10675;47.976;7.824;2023-03-11T03:58:41;4.00;94.80
21033;DHT22;10675;47.976;7.824;2023-03-11T04:01:07;3.90;94.90
21033;DHT22;10675;47.976;7.824;2023-03-11T04:03:33;3.90;94.90
21033;DHT22;10675;47.976;7.824;2023-03-11T04:06:21;3.80;95.30
21033;DHT22;10675;47.976;7.824;2023-03-11T04:08:47;3.90;95.70
21033;DHT22;10675;47.976;7.824;2023-03-11T04:11:14;3.80;95.90
21033;DHT22;10675;47.976;7.824;2023-03-11T04:13:40;3.90;96.30
21033;DHT22;10675;47.976;7.824;2023-03-11T04:16:14;3.90;96.40
21033;DHT22;10675;47.976;7.824;2023-03-11T04:18:40;3.90;96.60
21033;DHT22;10675;47.976;7.824;2023-03-11T04:21:06;3.90;97.00
21033;DHT22;10675;47.976;7.824;2023-03-11T04:23:31;3.90;96.60
21033;DHT22;10675;47.976;7.824;2023-03-11T04:25:57;3.80;96.10
21033;DHT22;10675;47.976;7.824;2023-03-11T04:28:23;3.70;96.20
21033;DHT22;10675;47.976;7.824;2023-03-11T04:30:48;3.60;96.30
21033;DHT22;10675;47.976;7.824;2023-03-11T04:33:14;3.70;96.60
21033;DHT22;10675;47.976;7.824;2023-03-11T04:35:39;3.60;96.30
21033;DHT22;10675;47.976;7.824;2023-03-11T04:38:05;3.70;96.70
21033;DHT22;10675;47.976;7.824;2023-03-11T04:40:30;3.60;96.20
21033;DHT22;10675;47.976;7.824;2023-03-11T04:42:56;3.60;96.20
21033;DHT22;10675;47.976;7.824;2023-03-11T04:45:22;3.50;96.10
21033;DHT22;10675;47.976;7.824;2023-03-11T04:47:48;3.50;96.60
21033;DHT22;10675;47.976;7.824;2023-03-11T04:50:14;3.60;96.70
21033;DHT22;10675;47.976;7.824;2023-03-11T04:52:40;3.60;96.30
21033;DHT22;10675;47.976;7.824;2023-03-11T04:55:06;3.50;96.40
21033;DHT22;10675;47.976;7.824;2023-03-11T04:57:32;3.60;96.50
21033;DHT22;10675;47.976;7.824;2023-03-11T04:59:57;3.50;96.60
21033;DHT22;10675;47.976;7.824;2023-03-11T05:02:23;3.50;96.90
21033;DHT22;10675;47.976;7.824;2023-03-11T05:04:48;3.60;97.20
21033;DHT22;10675;47.976;7.824;2023-03-11T05:07:14;3.60;97.40
21033;DHT22;10675;47.976;7.824;2023-03-11T05:09:39;3.60;97.10
21033;DHT22;10675;47.976;7.824;2023-03-11T05:12:05;3.60;97.20
21033;DHT22;10675;47.976;7.824;2023-03-11T05:14:31;3.60;96.80
21033;DHT22;10675;47.976;7.824;2023-03-11T05:16:57;3.60;96.80
21033;DHT22;10675;47.976;7.824;2023-03-11T05:19:22;3.50;96.90
21033;DHT22;10675;47.976;7.824;2023-03-11T05:21:59;3.50;97.30
21033;DHT22;10675;47.976;7.824;2023-03-11T05:24:24;3.60;97.00
21033;DHT22;10675;47.976;7.824;2023-03-11T05:26:51;3.50;96.40
21033;DHT22;10675;47.976;7.824;2023-03-11T05:29:16;3.50;96.60
21033;DHT22;10675;47.976;7.824;2023-03-11T05:31:42;3.60;96.70
21033;DHT22;10675;47.976;7.824;2023-03-11T05:34:08;3.60;96.80
21033;DHT22;10675;47.976;7.824;2023-03-11T05:36:33;3.60;96.70
21033;DHT22;10675;47.976;7.824;2023-03-11T05:38:59;3.50;96.30
21033;DHT22;10675;47.976;7.824;2023-03-11T05:41:24;3.60;96.30
21033;DHT22;10675;47.976;7.824;2023-03-11T05:43:50;3.50;96.00
21033;DHT22;10675;47.976;7.824;2023-03-11T05:46:15;3.50;96.10
21033;DHT22;10675;47.976;7.824;2023-03-11T05:48:41;3.50;96.10
21033;DHT22;10675;47.976;7.824;2023-03-11T05:51:08;3.50;96.00
21033;DHT22;10675;47.976;7.824;2023-03-11T05:53:34;3.60;96.40
21033;DHT22;10675;47.976;7.824;2023-03-11T05:56:00;3.60;96.20
21033;DHT22;10675;47.976;7.824;2023-03-11T05:58:27;3.50;95.80
21033;DHT22;10675;47.976;7.824;2023-03-11T06:00:53;3.50;95.90
21033;DHT22;10675;47.976;7.824;2023-03-11T06:03:19;3.50;96.10
21033;DHT22;10675;47.976;7.824;2023-03-11T06:05:48;3.50;96.30
21033;DHT22;10675;47.976;7.824;2023-03-11T06:08:15;3.50;96.00
21033;DHT22;10675;47.976;7.824;2023-03-11T06:10:41;3.50;96.20
21033;DHT22;10675;47.976;7.824;2023-03-11T06:13:08;3.50;96.50
21033;DHT22;10675;47.976;7.824;2023-03-11T06:15:36;3.60;96.30
21033;DHT22;10675;47.976;7.824;2023-03-11T06:18:02;3.70;96.70
21033;DHT22;10675;47.976;7.824;2023-03-11T06:20:28;3.70;96.20
21033;DHT22;10675;47.976;7.824;2023-03-11T06:22:54;3.70;95.80
21033;DHT22;10675;47.976;7.824;2023-03-11T06:25:20;3.70;95.70
21033;DHT22;10675;47.976;7.824;2023-03-11T06:27:50;3.70;95.70
21033;DHT22;10675;47.976;7.824;2023-03-11T06:30:17;3.80;96.00
21033;DHT22;10675;47.976;7.824;2023-03-11T06:32:45;3.80;94.70
21033;DHT22;10675;47.976;7.824;2023-03-11T06:35:10;3.80;94.60
21033;DHT22;10675;47.976;7.824;2023-03-11T06:37:36;4.00;94.50
21033;DHT22;10675;47.976;7.824;2023-03-11T06:40:03;3.70;94.70
21033;DHT22;10675;47.976;7.824;2023-03-11T06:42:29;3.70;94.60
21033;DHT22;10675;47.976;7.824;2023-03-11T06:44:55;3.80;95.10
21033;DHT22;10675;47.976;7.824;2023-03-11T06:47:21;3.80;95.40
21033;DHT22;10675;47.976;7.824;2023-03-11T06:49:46;3.70;94.90
21033;DHT22;10675;47.976;7.824;2023-03-11T06:52:12;3.70;94.80
21033;DHT22;10675;47.976;7.824;2023-03-11T06:54:37;3.90;94.70
21033;DHT22;10675;47.976;7.824;2023-03-11T06:57:06;3.90;94.30
21033;DHT22;10675;47.976;7.824;2023-03-11T06:59:32;3.90;94.10
21033;DHT22;10675;47.976;7.824;2023-03-11T07:01:57;4.00;94.70
21033;DHT22;10675;47.976;7.824;2023-03-11T07:04:23;4.00;95.30
21033;DHT22;10675;47.976;7.824;2023-03-11T07:06:49;4.00;94.70
21033;DHT22;10675;47.976;7.824;2023-03-11T07:09:14;4.00;94.10
21033;DHT22;10675;47.976;7.824;2023-03-11T07:11:40;4.00;94.10
21033;DHT22;10675;47.976;7.824;2023-03-11T07:14:05;4.00;94.20
21033;DHT22;10675;47.976;7.824;2023-03-11T07:16:31;3.90;94.10
21033;DHT22;10675;47.976;7.824;2023-03-11T07:18:58;3.80;93.80
21033;DHT22;10675;47.976;7.824;2023-03-11T07:21:26;3.90;93.90
21033;DHT22;10675;47.976;7.824;2023-03-11T07:23:53;3.90;94.10
21033;DHT22;10675;47.976;7.824;2023-03-11T07:26:19;3.90;93.40
21033;DHT22;10675;47.976;7.824;2023-03-11T07:28:45;3.90;93.00
21033;DHT22;10675;47.976;7.824;2023-03-11T07:31:13;3.90;92.60
21033;DHT22;10675;47.976;7.824;2023-03-11T07:33:40;3.90;92.30
21033;DHT22;10675;47.976;7.824;2023-03-11T07:36:24;4.00;92.90
21033;DHT22;10675;47.976;7.824;2023-03-11T07:38:55;4.10;92.90
21033;DHT22;10675;47.976;7.824;2023-03-11T07:41:22;4.20;93.30
21033;DHT22;10675;47.976;7.824;2023-03-11T07:43:48;4.10;92.60
21033;DHT22;10675;47.976;7.824;2023-03-11T07:46:15;4.20;92.70
21033;DHT22;10675;47.976;7.824;2023-03-11T07:48:43;4.10;92.00
21033;DHT22;10675;47.976;7.824;2023-03-11T07:51:16;3.90;91.80
21033;DHT22;10675;47.976;7.824;2023-03-11T07:53:42;3.90;92.30
21033;DHT22;10675;47.976;7.824;2023-03-11T07:56:12;3.90;92.50
21033;DHT22;10675;47.976;7.824;2023-03-11T07:58:38;3.90;92.50
21033;DHT22;10675;47.976;7.824;2023-03-11T08:01:07;3.90;91.90
21033;DHT22;10675;47.976;7.824;2023-03-11T08:03:33;3.90;91.60
21033;DHT22;10675;47.976;7.824;2023-03-11T08:05:59;3.50;91.70
21033;DHT22;10675;47.976;7.824;2023-03-11T08:08:25;4.00;92.00
21033;DHT22;10675;47.976;7.824;2023-03-11T08:10:51;4.00;92.10
21033;DHT22;10675;47.976;7.824;2023-03-11T08:13:16;4.10;92.40
21033;DHT22;10675;47.976;7.824;2023-03-11T08:15:42;4.00;92.40
21033;DHT22;10675;47.976;7.824;2023-03-11T08:18:08;4.00;93.10
21033;DHT22;10675;47.976;7.824;2023-03-11T08:20:33;4.00;92.40
21033;DHT22;10675;47.976;7.824;2023-03-11T08:23:01;3.90;92.50
21033;DHT22;10675;47.976;7.824;2023-03-11T08:25:26;4.00;92.20
21033;DHT22;10675;47.976;7.824;2023-03-11T08:27:52;4.00;92.10
21033;DHT22;10675;47.976;7.824;2023-03-11T08:30:18;4.20;92.30
21033;DHT22;10675;47.976;7.824;2023-03-11T08:32:43;4.30;91.20
21033;DHT22;10675;47.976;7.824;2023-03-11T08:35:09;4.30;91.20
21033;DHT22;10675;47.976;7.824;2023-03-11T08:37:35;4.30;91.60
21033;DHT22;10675;47.976;7.824;2023-03-11T08:40:01;4.30;90.70
21033;DHT22;10675;47.976;7.824;2023-03-11T08:42:26;4.30;91.00
21033;DHT22;10675;47.976;7.824;2023-03-11T08:44:52;4.40;91.40
21033;DHT22;10675;47.976;7.824;2023-03-11T08:47:17;4.20;91.10
21033;DHT22;10675;47.976;7.824;2023-03-11T08:49:43;4.20;91.70
21033;DHT22;10675;47.976;7.824;2023-03-11T08:52:08;4.20;92.30
21033;DHT22;10675;47.976;7.824;2023-03-11T08:54:34;4.70;93.70
21033;DHT22;10675;47.976;7.824;2023-03-11T08:56:59;5.10;93.90
21033;DHT22;10675;47.976;7.824;2023-03-11T08:59:30;5.00;91.00
21033;DHT22;10675;47.976;7.824;2023-03-11T09:01:56;5.00;91.80
21033;DHT22;10675;47.976;7.824;2023-03-11T09:04:21;5.00;90.30
21033;DHT22;10675;47.976;7.824;2023-03-11T09:06:47;4.90;90.20
21033;DHT22;10675;47.976;7.824;2023-03-11T09:09:16;4.90;89.30
21033;DHT22;10675;47.976;7.824;2023-03-11T09:11:45;4.90;89.10
21033;DHT22;10675;47.976;7.824;2023-03-11T09:14:11;5.10;90.70
21033;DHT22;10675;47.976;7.824;2023-03-11T09:16:37;5.20;87.30
21033;DHT22;10675;47.976;7.824;2023-03-11T09:19:02;5.00;87.20
21033;DHT22;10675;47.976;7.824;2023-03-11T09:21:34;5.00;86.70
21033;DHT22;10675;47.976;7.824;2023-03-11T09:24:01;5.10;85.10
21033;DHT22;10675;47.976;7.824;2023-03-11T09:26:29;5.10;80.40
21033;DHT22;10675;47.976;7.824;2023-03-11T09:28:55;5.30;81.10
21033;DHT22;10675;47.976;7.824;2023-03-11T09:31:21;5.30;81.00
21033;DHT22;10675;47.976;7.824;2023-03-11T09:33:47;5.40;81.30
21033;DHT22;10675;47.976;7.824;2023-03-11T09:36:16;5.60;79.10
21033;DHT22;10675;47.976;7.824;2023-03-11T09:38:43;5.70;78.30
21033;DHT22;10675;47.976;7.824;2023-03-11T09:47:11;6.00;75.30
21033;DHT22;10675;47.976;7.824;2023-03-11T09:50:05;5.90;76.40
21033;DHT22;10675;47.976;7.824;2023-03-11T09:55:31;6.00;74.40
21033;DHT22;10675;47.976;7.824;2023-03-11T09:58:00;6.00;73.90
21033;DHT22;10675;47.976;7.824;2023-03-11T10:00:27;5.80;70.80
21033;DHT22;10675;47.976;7.824;2023-03-11T10:02:52;5.80;72.40
21033;DHT22;10675;47.976;7.824;2023-03-11T10:05:27;5.80;72.90
21033;DHT22;10675;47.976;7.824;2023-03-11T10:08:04;6.20;72.30
21033;DHT22;10675;47.976;7.824;2023-03-11T10:10:42;6.30;72.00
21033;DHT22;10675;47.976;7.824;2023-03-11T10:13:27;6.40;71.90
21033;DHT22;10675;47.976;7.824;2023-03-11T10:16:08;6.50;72.10
21033;DHT22;10675;47.976;7.824;2023-03-11T10:18:54;6.80;71.10
21033;DHT22;10675;47.976;7.824;2023-03-11T10:24:37;6.90;65.50
21033;DHT22;10675;47.976;7.824;2023-03-11T10:27:10;7.00;67.70
21033;DHT22;10675;47.976;7.824;2023-03-11T10:29:44;7.00;69.30
21033;DHT22;10675;47.976;7.824;2023-03-11T10:35:10;7.60;69.20
21033;DHT22;10675;47.976;7.824;2023-03-11T10:37:43;7.60;64.30
21033;DHT22;10675;47.976;7.824;2023-03-11T10:40:31;7.30;64.80
21033;DHT22;10675;47.976;7.824;2023-03-11T10:43:02;7.40;63.90
21033;DHT22;10675;47.976;7.824;2023-03-11T10:45:35;7.90;63.10
21033;DHT22;10675;47.976;7.824;2023-03-11T10:48:01;6.90;63.90
21033;DHT22;10675;47.976;7.824;2023-03-11T10:50:27;7.20;65.00
21033;DHT22;10675;47.976;7.824;2023-03-11T10:53:08;7.40;63.90
21033;DHT22;10675;47.976;7.824;2023-03-11T10:55:34;7.00;62.50
21033;DHT22;10675;47.976;7.824;2023-03-11T10:58:21;6.90;63.80
21033;DHT22;10675;47.976;7.824;2023-03-11T11:03:33;7.20;61.70
21033;DHT22;10675;47.976;7.824;2023-03-11T11:06:03;7.00;64.10
21033;DHT22;10675;47.976;7.824;2023-03-11T11:08:29;7.20;62.90
21033;DHT22;10675;47.976;7.824;2023-03-11T11:11:00;7.20;62.20
21033;DHT22;10675;47.976;7.824;2023-03-11T11:13:31;7.40;62.00
21033;DHT22;10675;47.976;7.824;2023-03-11T11:16:05;7.60;58.50
21033;DHT22;10675;47.976;7.824;2023-03-11T11:18:50;7.10;56.80
21033;DHT22;10675;47.976;7.824;2023-03-11T11:21:31;6.90;56.90
21033;DHT22;10675;47.976;7.824;2023-03-11T11:24:02;6.80;57.50
21033;DHT22;10675;47.976;7.824;2023-03-11T11:26:28;7.20;58.10
21033;DHT22;10675;47.976;7.824;2023-03-11T11:31:38;7.40;58.20
21033;DHT22;10675;47.976;7.824;2023-03-11T11:34:28;7.60;57.00
21033;DHT22;10675;47.976;7.824;2023-03-11T11:36:56;8.10;58.20
21033;DHT22;10675;47.976;7.824;2023-03-11T11:39:25;8.10;56.00
21033;DHT22;10675;47.976;7.824;2023-03-11T11:41:51;8.30;56.60
21033;DHT22;10675;47.976;7.824;2023-03-11T11:44:20;8.10;55.80
21033;DHT22;10675;47.976;7.824;2023-03-11T11:46:50;7.90;56.00
21033;DHT22;10675;47.976;7.824;2023-03-11T11:49:27;8.30;57.00
21033;DHT22;10675;47.976;7.824;2023-03-11T11:52:07;8.30;56.50
21033;DHT22;10675;47.976;7.824;2023-03-11T11:54:42;8.00;56.60
21033;DHT22;10675;47.976;7.824;2023-03-11T11:57:15;7.50;56.60
21033;DHT22;10675;47.976;7.824;2023-03-11T11:59:42;7.70;59.30
21033;DHT22;10675;47.976;7.824;2023-03-11T12:10:44;8.00;57.90
21033;DHT22;10675;47.976;7.824;2023-03-11T12:16:04;7.40;57.90
21033;DHT22;10675;47.976;7.824;2023-03-11T12:26:37;7.30;58.30
21033;DHT22;10675;47.976;7.824;2023-03-11T12:29:22;7.20;58.60
21033;DHT22;10675;47.976;7.824;2023-03-11T12:31:49;7.40;59.60
21033;DHT22;10675;47.976;7.824;2023-03-11T12:34:18;7.60;59.10
21033;DHT22;10675;47.976;7.824;2023-03-11T12:36:45;7.80;58.30
21033;DHT22;10675;47.976;7.824;2023-03-11T12:39:23;8.00;57.90
21033;DHT22;10675;47.976;7.824;2023-03-11T12:44:38;8.20;59.10
21033;DHT22;10675;47.976;7.824;2023-03-11T12:49:34;8.90;58.50
21033;DHT22;10675;47.976;7.824;2023-03-11T12:52:01;8.10;56.00
21033;DHT22;10675;47.976;7.824;2023-03-11T12:54:30;8.30;58.40
21033;DHT22;10675;47.976;7.824;2023-03-11T13:06:01;7.80;58.30
21033;DHT22;10675;47.976;7.824;2023-03-11T13:08:56;7.90;57.80
21033;DHT22;10675;47.976;7.824;2023-03-11T13:14:19;8.60;57.20
21033;DHT22;10675;47.976;7.824;2023-03-11T13:16:47;8.90;57.80
21033;DHT22;10675;47.976;7.824;2023-03-11T13:21:56;9.10;57.50
21033;DHT22;10675;47.976;7.824;2023-03-11T13:29:54;9.80;56.70
21033;DHT22;10675;47.976;7.824;2023-03-11T13:32:37;9.60;56.30
21033;DHT22;10675;47.976;7.824;2023-03-11T13:35:11;8.80;59.00
21033;DHT22;10675;47.976;7.824;2023-03-11T13:38:10;9.00;57.70
21033;DHT22;10675;47.976;7.824;2023-03-11T13:40:41;8.80;58.60
21033;DHT22;10675;47.976;7.824;2023-03-11T13:43:22;8.70;60.00
21033;DHT22;10675;47.976;7.824;2023-03-11T13:46:00;8.40;60.30
21033;DHT22;10675;47.976;7.824;2023-03-11T13:48:32;8.40;60.40
21033;DHT22;10675;47.976;7.824;2023-03-11T13:51:05;8.40;60.60
21033;DHT22;10675;47.976;7.824;2023-03-11T13:53:38;8.70;60.90
21033;DHT22;10675;47.976;7.824;2023-03-11T13:56:05;8.50;58.80
21033;DHT22;10675;47.976;7.824;2023-03-11T13:58:40;8.60;58.70
21033;DHT22;10675;47.976;7.824;2023-03-11T14:01:14;8.60;59.10
21033;DHT22;10675;47.976;7.824;2023-03-11T14:03:42;8.90;60.60
21033;DHT22;10675;47.976;7.824;2023-03-11T14:06:13;8.70;59.80
21033;DHT22;10675;47.976;7.824;2023-03-11T14:08:39;8.50;62.50
21033;DHT22;10675;47.976;7.824;2023-03-11T14:13:41;9.40;61.80
21033;DHT22;10675;47.976;7.824;2023-03-11T14:16:17;9.50;60.10
21033;DHT22;10675;47.976;7.824;2023-03-11T14:19:01;9.60;60.30
21033;DHT22;10675;47.976;7.824;2023-03-11T14:21:27;9.70;58.50
21033;DHT22;10675;47.976;7.824;2023-03-11T14:23:55;9.30;58.00
21033;DHT22;10675;47.976;7.824;2023-03-11T14:26:27;8.90;59.80
21033;DHT22;10675;47.976;7.824;2023-03-11T14:28:56;8.60;61.10
21033;DHT22;10675;47.976;7.824;2023-03-11T14:31:40;8.50;61.80
21033;DHT22;10675;47.976;7.824;2023-03-11T14:34:19;8.10;62.80
21033;DHT22;10675;47.976;7.824;2023-03-11T14:39:36;8.10;62.10
21033;DHT22;10675;47.976;7.824;2023-03-11T14:42:22;8.10;62.40
21033;DHT22;10675;47.976;7.824;2023-03-11T14:49:59;8.20;62.20
21033;DHT22;10675;47.976;7.824;2023-03-11T14:52:44;8.00;61.30
21033;DHT22;10675;47.976;7.824;2023-03-11T14:55:21;8.40;62.00
21033;DHT22;10675;47.976;7.824;2023-03-11T15:00:20;8.20;62.10
21033;DHT22;10675;47.976;7.824;2023-03-11T15:03:03;8.30;63.80
21033;DHT22;10675;47.976;7.824;2023-03-11T15:05:49;8.20;62.50
21033;DHT22;10675;47.976;7.824;2023-03-11T15:08:18;8.40;63.30
21033;DHT22;10675;47.976;7.824;2023-03-11T15:11:26;8.00;63.50
21033;DHT22;10675;47.976;7.824;2023-03-11T15:13:53;8.20;64.50
21033;DHT22;10675;47.976;7.824;2023-03-11T15:16:39;8.00;63.60
21033;DHT22;10675;47.976;7.824;2023-03-11T15:19:31;8.20;62.80
21033;DHT22;10675;47.976;7.824;2023-03-11T15:22:06;8.20;64.00
21033;DHT22;10675;47.976;7.824;2023-03-11T15:24:48;8.10;63.40
21033;DHT22;10675;47.976;7.824;2023-03-11T15:27:36;8.00;63.90
21033;DHT22;10675;47.976;7.824;2023-03-11T15:30:16;7.80;64.20
21033;DHT22;10675;47.976;7.824;2023-03-11T15:32:43;7.50;64.80
21033;DHT22;10675;47.976;7.824;2023-03-11T15:37:39;7.40;65.00
21033;DHT22;10675;47.976;7.824;2023-03-11T15:40:28;7.30;65.50
21033;DHT22;10675;47.976;7.824;2023-03-11T15:43:26;7.50;66.60
21033;DHT22;10675;47.976;7.824;2023-03-11T15:45:53;7.50;65.70
21033;DHT22;10675;47.976;7.824;2023-03-11T15:48:21;7.50;66.20
21033;DHT22;10675;47.976;7.824;2023-03-11T15:50:53;7.40;65.70
21033;DHT22;10675;47.976;7.824;2023-03-11T15:53:19;7.40;66.40
21033;DHT22;10675;47.976;7.824;2023-03-11T15:55:46;7.30;65.80
21033;DHT22;10675;47.976;7.824;2023-03-11T15:58:15;7.40;66.70
21033;DHT22;10675;47.976;7.824;2023-03-11T16:00:49;7.60;67.00
21033;DHT22;10675;47.976;7.824;2023-03-11T16:03:15;7.60;66.30
21033;DHT22;10675;47.976;7.824;2023-03-11T16:05:40;7.50;66.10
21033;DHT22;10675;47.976;7.824;2023-03-11T16:08:06;7.40;68.60
21033;DHT22;10675;47.976;7.824;2023-03-11T16:10:33;7.30;66.50
21033;DHT22;10675;47.976;7.824;2023-03-11T16:12:58;7.10;66.30
21033;DHT22;10675;47.976;7.824;2023-03-11T16:15:32;7.10;67.30
21033;DHT22;10675;47.976;7.824;2023-03-11T16:18:00;7.00;67.50
21033;DHT22;10675;47.976;7.824;2023-03-11T16:20:30;7.20;68.30
21033;DHT22;10675;47.976;7.824;2023-03-11T16:22:58;6.90;67.50
21033;DHT22;10675;47.976;7.824;2023-03-11T16:25:32;7.00;68.60
21033;DHT22;10675;47.976;7.824;2023-03-11T16:27:59;6.90;68.30
21033;DHT22;10675;47.976;7.824;2023-03-11T16:30:26;7.00;68.60
21033;DHT22;10675;47.976;7.824;2023-03-11T16:32:52;7.20;69.40
21033;DHT22;10675;47.976;7.824;2023-03-11T16:35:18;7.10;67.90
21033;DHT22;10675;47.976;7.824;2023-03-11T16:37:44;7.00;68.10
21033;DHT22;10675;47.976;7.824;2023-03-11T16:40:15;7.00;68.50
21033;DHT22;10675;47.976;7.824;2023-03-11T16:42:41;7.00;68.30
21033;DHT22;10675;47.976;7.824;2023-03-11T16:45:09;7.00;68.80
21033;DHT22;10675;47.976;7.824;2023-03-11T16:47:34;7.00;68.80
21033;DHT22;10675;47.976;7.824;2023-03-11T16:50:00;7.10;68.50
21033;DHT22;10675;47.976;7.824;2023-03-11T16:52:25;7.10;68.30
21033;DHT22;10675;47.976;7.824;2023-03-11T16:54:51;7.00;68.60
21033;DHT22;10675;47.976;7.824;2023-03-11T16:57:17;7.00;68.20
21033;DHT22;10675;47.976;7.824;2023-03-11T16:59:42;7.10;69.00
21033;DHT22;10675;47.976;7.824;2023-03-11T17:02:11;7.00;68.20
21033;DHT22;10675;47.976;7.824;2023-03-11T17:04:37;7.00;68.70
21033;DHT22;10675;47.976;7.824;2023-03-11T17:07:03;7.00;68.90
21033;DHT22;10675;47.976;7.824;2023-03-11T17:09:30;7.00;69.30
21033;DHT22;10675;47.976;7.824;2023-03-11T17:11:55;7.00;69.60
21033;DHT22;10675;47.976;7.824;2023-03-11T17:14:21;6.90;70.20
21033;DHT22;10675;47.976;7.824;2023-03-11T17:16:47;6.90;70.80
21033;DHT22;10675;47.976;7.824;2023-03-11T17:19:12;6.90;70.30
21033;DHT22;10675;47.976;7.824;2023-03-11T17:21:38;6.90;71.10
21033;DHT22;10675;47.976;7.824;2023-03-11T17:24:04;6.90;71.80